sensor_id;sensor_type;location;lat;lon;timestamp;pressure;altitude;pressure_sealevel;temperature
20058;BMP180;10189;49.546;7.906;2023-08-17T00:00:29;98300.00;;;19.10
20058;BMP180;10189;49.546;7.906;2023-08-17T00:02:55;98291.00;;;19.10
20058;BMP180;10189;49.546;7.906;2023-08-17T00:05:21;98298.00;;;19.10
20058;BMP180;10189;49.546;7.906;2023-08-17T00:07:47;98295.00;;;19.10
20058;BMP180;10189;49.546;7.906;2023-08-17T00:10:13;98297.00;;;19.10
20058;BMP180;10189;49.546;7.906;2023-08-17T00:12:39;98303.00;;;19.00
20058;BMP180;10189;49.546;7.906;2023-08-17T00:15:05;98307.00;;;18.90
20058;BMP180;10189;49.546;7.906;2023-08-17T00:17:31;98301.00;;;18.80
20058;BMP180;10189;49.546;7.906;2023-08-17T00:19:57;98293.00;;;18.90
20058;BMP180;10189;49.546;7.906;2023-08-17T00:22:23;98294.00;;;18.80
20058;BMP180;10189;49.546;7.906;2023-08-17T00:24:49;98286.00;;;18.80
20058;BMP180;10189;49.546;7.906;2023-08-17T00:27:14;98288.00;;;18.80
20058;BMP180;10189;49.546;7.906;2023-08-17T00:29:42;98285.00;;;18.80
20058;BMP180;10189;49.546;7.906;2023-08-17T00:32:08;98294.00;;;18.70
20058;BMP180;10189;49.546;7.906;2023-08-17T00:34:35;98292.00;;;18.70
20058;BMP180;10189;49.546;7.906;2023-08-17T00:37:01;98283.00;;;18.70
20058;BMP180;10189;49.546;7.906;2023-08-17T00:39:28;98295.00;;;18.70
20058;BMP180;10189;49.546;7.906;2023-08-17T00:41:54;98290.00;;;18.70
20058;BMP180;10189;49.546;7.906;2023-08-17T00:44:19;98292.00;;;18.60
20058;BMP180;10189;49.546;7.906;2023-08-17T00:46:47;98289.00;;;18.60
20058;BMP180;10189;49.546;7.906;2023-08-17T00:49:13;98279.00;;;18.60
20058;BMP180;10189;49.546;7.906;2023-08-17T00:51:41;98273.00;;;18.60
20058;BMP180;10189;49.546;7.906;2023-08-17T00:54:07;98283.00;;;18.60
20058;BMP180;10189;49.546;7.906;2023-08-17T00:56:33;98285.00;;;18.50
20058;BMP180;10189;49.546;7.906;2023-08-17T00:59:00;98282.00;;;18.50
20058;BMP180;10189;49.546;7.906;2023-08-17T01:01:26;98280.00;;;18.50
20058;BMP180;10189;49.546;7.906;2023-08-17T01:03:52;98282.00;;;18.40
20058;BMP180;10189;49.546;7.906;2023-08-17T01:06:19;98283.00;;;18.40
20058;BMP180;10189;49.546;7.906;2023-08-17T01:08:45;98269.00;;;18.50
20058;BMP180;10189;49.546;7.906;2023-08-17T01:11:36;98279.00;;;18.40
20058;BMP180;10189;49.546;7.906;2023-08-17T01:17:18;98287.00;;;18.30
20058;BMP180;10189;49.546;7.906;2023-08-17T01:19:45;98273.00;;;18.30
20058;BMP180;10189;49.546;7.906;2023-08-17T01:22:14;98278.00;;;18.30
20058;BMP180;10189;49.546;7.906;2023-08-17T01:24:43;98281.00;;;18.30
20058;BMP180;10189;49.546;7.906;2023-08-17T01:27:09;98274.00;;;18.30
20058;BMP180;10189;49.546;7.906;2023-08-17T01:29:36;98269.00;;;18.50
20058;BMP180;10189;49.546;7.906;2023-08-17T01:34:44;98262.00;;;18.50
20058;BMP180;10189;49.546;7.906;2023-08-17T01:37:18;98260.00;;;18.50
20058;BMP180;10189;49.546;7.906;2023-08-17T01:39:52;98259.00;;;18.50
20058;BMP180;10189;49.546;7.906;2023-08-17T01:42:19;98263.00;;;18.50
20058;BMP180;10189;49.546;7.906;2023-08-17T01:44:47;98250.00;;;18.60
20058;BMP180;10189;49.546;7.906;2023-08-17T01:47:15;98252.00;;;18.60
20058;BMP180;10189;49.546;7.906;2023-08-17T01:49:40;98252.00;;;18.60
20058;BMP180;10189;49.546;7.906;2023-08-17T01:52:06;98251.00;;;18.60
20058;BMP180;10189;49.546;7.906;2023-08-17T01:54:32;98259.00;;;18.60
20058;BMP180;10189;49.546;7.906;2023-08-17T01:56:58;98248.00;;;18.60
20058;BMP180;10189;49.546;7.906;2023-08-17T01:59:24;98254.00;;;18.60
20058;BMP180;10189;49.546;7.906;2023-08-17T02:01:50;98258.00;;;18.70
20058;BMP180;10189;49.546;7.906;2023-08-17T02:04:16;98246.00;;;18.70
20058;BMP180;10189;49.546;7.906;2023-08-17T02:06:41;98248.00;;;18.70
20058;BMP180;10189;49.546;7.906;2023-08-17T02:09:07;98245.00;;;18.70
20058;BMP180;10189;49.546;7.906;2023-08-17T02:11:33;98245.00;;;18.70
20058;BMP180;10189;49.546;7.906;2023-08-17T02:13:59;98245.00;;;18.70
20058;BMP180;10189;49.546;7.906;2023-08-17T02:16:25;98245.00;;;18.70
20058;BMP180;10189;49.546;7.906;2023-08-17T02:18:51;98249.00;;;18.70
20058;BMP180;10189;49.546;7.906;2023-08-17T02:21:17;98239.00;;;18.70
20058;BMP180;10189;49.546;7.906;2023-08-17T02:23:42;98240.00;;;18.70
20058;BMP180;10189;49.546;7.906;2023-08-17T02:26:08;98234.00;;;18.70
20058;BMP180;10189;49.546;7.906;2023-08-17T02:28:34;98235.00;;;18.80
20058;BMP180;10189;49.546;7.906;2023-08-17T02:31:00;98224.00;;;18.70
20058;BMP180;10189;49.546;7.906;2023-08-17T02:33:27;98227.00;;;18.80
20058;BMP180;10189;49.546;7.906;2023-08-17T02:35:53;98214.00;;;18.80
20058;BMP180;10189;49.546;7.906;2023-08-17T02:38:19;98220.00;;;18.80
20058;BMP180;10189;49.546;7.906;2023-08-17T02:40:45;98212.00;;;18.90
20058;BMP180;10189;49.546;7.906;2023-08-17T02:43:11;98212.00;;;18.80
20058;BMP180;10189;49.546;7.906;2023-08-17T02:45:37;98210.00;;;18.80
20058;BMP180;10189;49.546;7.906;2023-08-17T02:48:03;98215.00;;;18.70
20058;BMP180;10189;49.546;7.906;2023-08-17T02:50:29;98212.00;;;18.80
20058;BMP180;10189;49.546;7.906;2023-08-17T02:52:55;98221.00;;;18.70
20058;BMP180;10189;49.546;7.906;2023-08-17T02:55:21;98224.00;;;18.60
20058;BMP180;10189;49.546;7.906;2023-08-17T02:57:47;98223.00;;;18.60
20058;BMP180;10189;49.546;7.906;2023-08-17T03:00:14;98225.00;;;18.60
20058;BMP180;10189;49.546;7.906;2023-08-17T03:02:39;98232.00;;;18.50
20058;BMP180;10189;49.546;7.906;2023-08-17T03:05:06;98237.00;;;18.50
20058;BMP180;10189;49.546;7.906;2023-08-17T03:07:32;98233.00;;;18.60
20058;BMP180;10189;49.546;7.906;2023-08-17T03:09:58;98235.00;;;18.60
20058;BMP180;10189;49.546;7.906;2023-08-17T03:12:24;98227.00;;;18.70
20058;BMP180;10189;49.546;7.906;2023-08-17T03:14:49;98224.00;;;18.60
20058;BMP180;10189;49.546;7.906;2023-08-17T03:17:15;98227.00;;;18.50
20058;BMP180;10189;49.546;7.906;2023-08-17T03:19:41;98217.00;;;18.50
20058;BMP180;10189;49.546;7.906;2023-08-17T03:22:07;98214.00;;;18.50
20058;BMP180;10189;49.546;7.906;2023-08-17T03:24:33;98212.00;;;18.50
20058;BMP180;10189;49.546;7.906;2023-08-17T03:26:59;98217.00;;;18.50
20058;BMP180;10189;49.546;7.906;2023-08-17T03:29:25;98218.00;;;18.50
20058;BMP180;10189;49.546;7.906;2023-08-17T03:31:52;98222.00;;;18.50
20058;BMP180;10189;49.546;7.906;2023-08-17T03:34:18;98225.00;;;18.40
20058;BMP180;10189;49.546;7.906;2023-08-17T03:36:44;98218.00;;;18.50
20058;BMP180;10189;49.546;7.906;2023-08-17T03:39:10;98216.00;;;18.50
20058;BMP180;10189;49.546;7.906;2023-08-17T03:41:36;98218.00;;;18.40
20058;BMP180;10189;49.546;7.906;2023-08-17T03:44:03;98213.00;;;18.50
20058;BMP180;10189;49.546;7.906;2023-08-17T03:46:31;98212.00;;;18.50
20058;BMP180;10189;49.546;7.906;2023-08-17T03:48:58;98212.00;;;18.50
20058;BMP180;10189;49.546;7.906;2023-08-17T03:51:24;98212.00;;;18.50
20058;BMP180;10189;49.546;7.906;2023-08-17T03:53:50;98208.00;;;18.40
20058;BMP180;10189;49.546;7.906;2023-08-17T03:56:17;98224.00;;;18.40
20058;BMP180;10189;49.546;7.906;2023-08-17T03:58:43;98221.00;;;18.50
20058;BMP180;10189;49.546;7.906;2023-08-17T04:01:09;98222.00;;;18.50
20058;BMP180;10189;49.546;7.906;2023-08-17T04:03:37;98223.00;;;18.50
20058;BMP180;10189;49.546;7.906;2023-08-17T04:06:07;98223.00;;;18.50
20058;BMP180;10189;49.546;7.906;2023-08-17T04:08:39;98226.00;;;18.50
20058;BMP180;10189;49.546;7.906;2023-08-17T04:11:05;98227.00;;;18.50
20058;BMP180;10189;49.546;7.906;2023-08-17T04:13:32;98228.00;;;18.50
20058;BMP180;10189;49.546;7.906;2023-08-17T04:15:58;98221.00;;;18.40
20058;BMP180;10189;49.546;7.906;2023-08-17T04:18:23;98222.00;;;18.50
20058;BMP180;10189;49.546;7.906;2023-08-17T04:20:50;98234.00;;;18.50
20058;BMP180;10189;49.546;7.906;2023-08-17T04:23:16;98241.00;;;18.40
20058;BMP180;10189;49.546;7.906;2023-08-17T04:25:43;98243.00;;;18.30
20058;BMP180;10189;49.546;7.906;2023-08-17T04:28:09;98241.00;;;18.30
20058;BMP180;10189;49.546;7.906;2023-08-17T04:30:35;98232.00;;;18.20
20058;BMP180;10189;49.546;7.906;2023-08-17T04:33:03;98235.00;;;18.20
20058;BMP180;10189;49.546;7.906;2023-08-17T04:35:29;98239.00;;;18.30
20058;BMP180;10189;49.546;7.906;2023-08-17T04:37:55;98242.00;;;18.20
20058;BMP180;10189;49.546;7.906;2023-08-17T04:40:21;98234.00;;;18.20
20058;BMP180;10189;49.546;7.906;2023-08-17T04:42:48;98244.00;;;18.10
20058;BMP180;10189;49.546;7.906;2023-08-17T04:45:14;98245.00;;;18.00
20058;BMP180;10189;49.546;7.906;2023-08-17T04:47:43;98243.00;;;18.10
20058;BMP180;10189;49.546;7.906;2023-08-17T04:50:09;98244.00;;;18.00
20058;BMP180;10189;49.546;7.906;2023-08-17T04:52:35;98246.00;;;18.00
20058;BMP180;10189;49.546;7.906;2023-08-17T04:55:02;98247.00;;;18.10
20058;BMP180;10189;49.546;7.906;2023-08-17T04:57:30;98239.00;;;18.20
20058;BMP180;10189;49.546;7.906;2023-08-17T04:59:56;98256.00;;;18.30
20058;BMP180;10189;49.546;7.906;2023-08-17T05:02:22;98244.00;;;18.40
20058;BMP180;10189;49.546;7.906;2023-08-17T05:04:49;98249.00;;;18.20
20058;BMP180;10189;49.546;7.906;2023-08-17T05:07:15;98252.00;;;18.10
20058;BMP180;10189;49.546;7.906;2023-08-17T05:09:41;98245.00;;;18.20
20058;BMP180;10189;49.546;7.906;2023-08-17T05:12:07;98243.00;;;18.30
20058;BMP180;10189;49.546;7.906;2023-08-17T05:14:35;98238.00;;;18.30
20058;BMP180;10189;49.546;7.906;2023-08-17T05:17:01;98243.00;;;18.30
20058;BMP180;10189;49.546;7.906;2023-08-17T05:19:27;98247.00;;;18.40
20058;BMP180;10189;49.546;7.906;2023-08-17T05:21:54;98255.00;;;18.60
20058;BMP180;10189;49.546;7.906;2023-08-17T05:24:21;98251.00;;;18.60
20058;BMP180;10189;49.546;7.906;2023-08-17T05:26:47;98250.00;;;18.60
20058;BMP180;10189;49.546;7.906;2023-08-17T05:29:13;98242.00;;;18.80
20058;BMP180;10189;49.546;7.906;2023-08-17T05:31:40;98249.00;;;18.80
20058;BMP180;10189;49.546;7.906;2023-08-17T05:34:06;98260.00;;;19.00
20058;BMP180;10189;49.546;7.906;2023-08-17T05:36:33;98254.00;;;19.00
20058;BMP180;10189;49.546;7.906;2023-08-17T05:38:58;98260.00;;;19.00
20058;BMP180;10189;49.546;7.906;2023-08-17T05:41:26;98261.00;;;19.00
20058;BMP180;10189;49.546;7.906;2023-08-17T05:43:52;98267.00;;;19.00
20058;BMP180;10189;49.546;7.906;2023-08-17T05:46:17;98261.00;;;19.00
20058;BMP180;10189;49.546;7.906;2023-08-17T05:48:43;98269.00;;;19.10
20058;BMP180;10189;49.546;7.906;2023-08-17T05:51:09;98278.00;;;19.20
20058;BMP180;10189;49.546;7.906;2023-08-17T05:53:35;98284.00;;;19.20
20058;BMP180;10189;49.546;7.906;2023-08-17T05:56:02;98283.00;;;19.40
20058;BMP180;10189;49.546;7.906;2023-08-17T05:58:29;98284.00;;;19.20
20058;BMP180;10189;49.546;7.906;2023-08-17T06:01:07;98287.00;;;19.40
20058;BMP180;10189;49.546;7.906;2023-08-17T06:03:37;98284.00;;;19.30
20058;BMP180;10189;49.546;7.906;2023-08-17T06:06:05;98284.00;;;19.40
20058;BMP180;10189;49.546;7.906;2023-08-17T06:08:31;98289.00;;;19.40
20058;BMP180;10189;49.546;7.906;2023-08-17T06:10:57;98287.00;;;19.50
20058;BMP180;10189;49.546;7.906;2023-08-17T06:13:23;98295.00;;;19.50
20058;BMP180;10189;49.546;7.906;2023-08-17T06:15:50;98291.00;;;19.40
20058;BMP180;10189;49.546;7.906;2023-08-17T06:18:15;98292.00;;;19.40
20058;BMP180;10189;49.546;7.906;2023-08-17T06:20:42;98293.00;;;19.40
20058;BMP180;10189;49.546;7.906;2023-08-17T06:23:08;98289.00;;;19.40
20058;BMP180;10189;49.546;7.906;2023-08-17T06:25:34;98293.00;;;19.40
20058;BMP180;10189;49.546;7.906;2023-08-17T06:28:01;98299.00;;;19.60
20058;BMP180;10189;49.546;7.906;2023-08-17T06:30:27;98297.00;;;19.60
20058;BMP180;10189;49.546;7.906;2023-08-17T06:32:53;98303.00;;;19.50
20058;BMP180;10189;49.546;7.906;2023-08-17T06:35:19;98303.00;;;19.60
20058;BMP180;10189;49.546;7.906;2023-08-17T06:37:44;98304.00;;;19.40
20058;BMP180;10189;49.546;7.906;2023-08-17T06:40:10;98294.00;;;19.40
20058;BMP180;10189;49.546;7.906;2023-08-17T06:42:36;98289.00;;;19.60
20058;BMP180;10189;49.546;7.906;2023-08-17T06:45:04;98282.00;;;19.80
20058;BMP180;10189;49.546;7.906;2023-08-17T06:47:30;98285.00;;;19.80
20058;BMP180;10189;49.546;7.906;2023-08-17T06:49:56;98292.00;;;19.90
20058;BMP180;10189;49.546;7.906;2023-08-17T06:52:24;98280.00;;;20.30
20058;BMP180;10189;49.546;7.906;2023-08-17T06:54:50;98270.00;;;20.20
20058;BMP180;10189;49.546;7.906;2023-08-17T06:57:16;98269.00;;;20.10
20058;BMP180;10189;49.546;7.906;2023-08-17T06:59:41;98278.00;;;20.00
20058;BMP180;10189;49.546;7.906;2023-08-17T07:02:07;98282.00;;;20.10
20058;BMP180;10189;49.546;7.906;2023-08-17T07:04:33;98272.00;;;20.30
20058;BMP180;10189;49.546;7.906;2023-08-17T07:06:59;98278.00;;;20.50
20058;BMP180;10189;49.546;7.906;2023-08-17T07:09:25;98284.00;;;20.70
20058;BMP180;10189;49.546;7.906;2023-08-17T07:11:53;98283.00;;;20.70
20058;BMP180;10189;49.546;7.906;2023-08-17T07:14:19;98289.00;;;20.70
20058;BMP180;10189;49.546;7.906;2023-08-17T07:16:45;98286.00;;;20.90
20058;BMP180;10189;49.546;7.906;2023-08-17T07:19:10;98296.00;;;20.90
20058;BMP180;10189;49.546;7.906;2023-08-17T07:21:39;98299.00;;;21.00
20058;BMP180;10189;49.546;7.906;2023-08-17T07:24:13;98289.00;;;21.00
20058;BMP180;10189;49.546;7.906;2023-08-17T07:26:39;98293.00;;;21.20
20058;BMP180;10189;49.546;7.906;2023-08-17T07:29:05;98294.00;;;21.20
20058;BMP180;10189;49.546;7.906;2023-08-17T07:31:31;98288.00;;;21.30
20058;BMP180;10189;49.546;7.906;2023-08-17T07:34:00;98302.00;;;21.10
20058;BMP180;10189;49.546;7.906;2023-08-17T07:36:26;98296.00;;;21.20
20058;BMP180;10189;49.546;7.906;2023-08-17T07:38:52;98289.00;;;21.30
20058;BMP180;10189;49.546;7.906;2023-08-17T07:41:17;98288.00;;;21.40
20058;BMP180;10189;49.546;7.906;2023-08-17T07:43:43;98291.00;;;21.40
20058;BMP180;10189;49.546;7.906;2023-08-17T07:46:09;98299.00;;;20.80
20058;BMP180;10189;49.546;7.906;2023-08-17T07:48:35;98299.00;;;20.80
20058;BMP180;10189;49.546;7.906;2023-08-17T07:51:01;98298.00;;;20.70
20058;BMP180;10189;49.546;7.906;2023-08-17T07:53:27;98294.00;;;20.40
20058;BMP180;10189;49.546;7.906;2023-08-17T07:55:52;98301.00;;;20.50
20058;BMP180;10189;49.546;7.906;2023-08-17T07:58:18;98301.00;;;20.80
20058;BMP180;10189;49.546;7.906;2023-08-17T08:00:44;98304.00;;;21.00
20058;BMP180;10189;49.546;7.906;2023-08-17T08:03:10;98298.00;;;21.00
20058;BMP180;10189;49.546;7.906;2023-08-17T08:05:36;98292.00;;;21.10
20058;BMP180;10189;49.546;7.906;2023-08-17T08:08:02;98284.00;;;21.50
20058;BMP180;10189;49.546;7.906;2023-08-17T08:10:28;98262.00;;;21.90
20058;BMP180;10189;49.546;7.906;2023-08-17T08:12:55;98269.00;;;22.20
20058;BMP180;10189;49.546;7.906;2023-08-17T08:15:21;98259.00;;;22.30
20058;BMP180;10189;49.546;7.906;2023-08-17T08:17:46;98262.00;;;22.30
20058;BMP180;10189;49.546;7.906;2023-08-17T08:20:12;98261.00;;;22.70
20058;BMP180;10189;49.546;7.906;2023-08-17T08:22:38;98261.00;;;23.00
20058;BMP180;10189;49.546;7.906;2023-08-17T08:25:04;98259.00;;;23.10
20058;BMP180;10189;49.546;7.906;2023-08-17T08:27:30;98259.00;;;22.90
20058;BMP180;10189;49.546;7.906;2023-08-17T08:29:56;98265.00;;;22.90
20058;BMP180;10189;49.546;7.906;2023-08-17T08:32:23;98268.00;;;23.10
20058;BMP180;10189;49.546;7.906;2023-08-17T08:34:49;98272.00;;;23.10
20058;BMP180;10189;49.546;7.906;2023-08-17T08:37:15;98268.00;;;23.10
20058;BMP180;10189;49.546;7.906;2023-08-17T08:39:55;98284.00;;;23.10
20058;BMP180;10189;49.546;7.906;2023-08-17T08:42:22;98282.00;;;23.00
20058;BMP180;10189;49.546;7.906;2023-08-17T08:44:49;98286.00;;;22.60
20058;BMP180;10189;49.546;7.906;2023-08-17T08:47:17;98283.00;;;23.00
20058;BMP180;10189;49.546;7.906;2023-08-17T08:50:02;98286.00;;;23.00
20058;BMP180;10189;49.546;7.906;2023-08-17T08:52:42;98297.00;;;23.00
20058;BMP180;10189;49.546;7.906;2023-08-17T08:55:15;98294.00;;;23.30
20058;BMP180;10189;49.546;7.906;2023-08-17T08:57:43;98290.00;;;23.30
20058;BMP180;10189;49.546;7.906;2023-08-17T09:00:12;98287.00;;;23.60
20058;BMP180;10189;49.546;7.906;2023-08-17T09:02:38;98283.00;;;23.50
20058;BMP180;10189;49.546;7.906;2023-08-17T09:05:06;98283.00;;;23.10
20058;BMP180;10189;49.546;7.906;2023-08-17T09:07:35;98275.00;;;23.30
20058;BMP180;10189;49.546;7.906;2023-08-17T09:10:03;98283.00;;;23.40
20058;BMP180;10189;49.546;7.906;2023-08-17T09:12:30;98274.00;;;23.00
20058;BMP180;10189;49.546;7.906;2023-08-17T09:14:56;98280.00;;;23.10
20058;BMP180;10189;49.546;7.906;2023-08-17T09:17:27;98283.00;;;22.90
20058;BMP180;10189;49.546;7.906;2023-08-17T09:19:53;98285.00;;;22.90
20058;BMP180;10189;49.546;7.906;2023-08-17T09:22:43;98287.00;;;22.60
20058;BMP180;10189;49.546;7.906;2023-08-17T09:25:22;98285.00;;;23.20
20058;BMP180;10189;49.546;7.906;2023-08-17T09:27:49;98275.00;;;23.60
20058;BMP180;10189;49.546;7.906;2023-08-17T09:30:14;98293.00;;;23.90
20058;BMP180;10189;49.546;7.906;2023-08-17T09:32:41;98297.00;;;23.80
20058;BMP180;10189;49.546;7.906;2023-08-17T09:35:07;98287.00;;;23.90
20058;BMP180;10189;49.546;7.906;2023-08-17T09:37:34;98286.00;;;24.00
20058;BMP180;10189;49.546;7.906;2023-08-17T09:40:00;98283.00;;;24.20
20058;BMP180;10189;49.546;7.906;2023-08-17T09:42:26;98281.00;;;24.20
20058;BMP180;10189;49.546;7.906;2023-08-17T09:44:53;98270.00;;;24.30
20058;BMP180;10189;49.546;7.906;2023-08-17T09:47:20;98278.00;;;24.40
20058;BMP180;10189;49.546;7.906;2023-08-17T09:49:54;98274.00;;;24.30
20058;BMP180;10189;49.546;7.906;2023-08-17T09:52:22;98278.00;;;24.50
20058;BMP180;10189;49.546;7.906;2023-08-17T09:54:51;98264.00;;;24.80
20058;BMP180;10189;49.546;7.906;2023-08-17T09:57:17;98271.00;;;24.70
20058;BMP180;10189;49.546;7.906;2023-08-17T09:59:43;98264.00;;;24.40
20058;BMP180;10189;49.546;7.906;2023-08-17T10:02:22;98258.00;;;25.00
20058;BMP180;10189;49.546;7.906;2023-08-17T10:04:52;98270.00;;;25.70
20058;BMP180;10189;49.546;7.906;2023-08-17T10:07:29;98275.00;;;26.30
20058;BMP180;10189;49.546;7.906;2023-08-17T10:10:08;98274.00;;;26.90
20058;BMP180;10189;49.546;7.906;2023-08-17T10:12:44;98282.00;;;27.10
20058;BMP180;10189;49.546;7.906;2023-08-17T10:15:18;98267.00;;;27.30
20058;BMP180;10189;49.546;7.906;2023-08-17T10:18:07;98282.00;;;26.50
20058;BMP180;10189;49.546;7.906;2023-08-17T10:20:37;98274.00;;;26.10
20058;BMP180;10189;49.546;7.906;2023-08-17T10:23:14;98286.00;;;25.90
20058;BMP180;10189;49.546;7.906;2023-08-17T10:25:42;98283.00;;;25.60
20058;BMP180;10189;49.546;7.906;2023-08-17T10:28:11;98280.00;;;25.00
20058;BMP180;10189;49.546;7.906;2023-08-17T10:30:39;98280.00;;;24.60
20058;BMP180;10189;49.546;7.906;2023-08-17T10:33:08;98284.00;;;25.00
20058;BMP180;10189;49.546;7.906;2023-08-17T10:35:37;98279.00;;;25.00
20058;BMP180;10189;49.546;7.906;2023-08-17T10:38:04;98280.00;;;25.50
20058;BMP180;10189;49.546;7.906;2023-08-17T10:40:42;98271.00;;;25.70
20058;BMP180;10189;49.546;7.906;2023-08-17T10:43:08;98271.00;;;25.80
20058;BMP180;10189;49.546;7.906;2023-08-17T10:45:35;98260.00;;;25.40
20058;BMP180;10189;49.546;7.906;2023-08-17T10:50:35;98267.00;;;25.90
20058;BMP180;10189;49.546;7.906;2023-08-17T10:53:10;98263.00;;;26.00
20058;BMP180;10189;49.546;7.906;2023-08-17T10:55:41;98258.00;;;26.30
20058;BMP180;10189;49.546;7.906;2023-08-17T10:58:09;98264.00;;;25.90
20058;BMP180;10189;49.546;7.906;2023-08-17T11:00:40;98265.00;;;25.80
20058;BMP180;10189;49.546;7.906;2023-08-17T11:03:18;98264.00;;;25.90
20058;BMP180;10189;49.546;7.906;2023-08-17T11:05:49;98267.00;;;26.10
20058;BMP180;10189;49.546;7.906;2023-08-17T11:08:32;98279.00;;;26.40
20058;BMP180;10189;49.546;7.906;2023-08-17T11:13:35;98296.00;;;26.60
20058;BMP180;10189;49.546;7.906;2023-08-17T11:16:03;98298.00;;;26.90
20058;BMP180;10189;49.546;7.906;2023-08-17T11:18:30;98310.00;;;27.60
20058;BMP180;10189;49.546;7.906;2023-08-17T11:20:57;98307.00;;;27.80
20058;BMP180;10189;49.546;7.906;2023-08-17T11:23:24;98311.00;;;28.30
20058;BMP180;10189;49.546;7.906;2023-08-17T11:25:52;98313.00;;;28.10
20058;BMP180;10189;49.546;7.906;2023-08-17T11:28:18;98313.00;;;28.20
20058;BMP180;10189;49.546;7.906;2023-08-17T11:30:44;98311.00;;;28.30
20058;BMP180;10189;49.546;7.906;2023-08-17T11:33:10;98309.00;;;28.80
20058;BMP180;10189;49.546;7.906;2023-08-17T11:35:38;98314.00;;;28.90
20058;BMP180;10189;49.546;7.906;2023-08-17T11:38:05;98312.00;;;28.30
20058;BMP180;10189;49.546;7.906;2023-08-17T11:40:32;98316.00;;;27.90
20058;BMP180;10189;49.546;7.906;2023-08-17T11:42:58;98320.00;;;26.70
20058;BMP180;10189;49.546;7.906;2023-08-17T11:45:24;98321.00;;;26.20
20058;BMP180;10189;49.546;7.906;2023-08-17T11:47:51;98322.00;;;26.20
20058;BMP180;10189;49.546;7.906;2023-08-17T11:50:18;98313.00;;;25.90
20058;BMP180;10189;49.546;7.906;2023-08-17T11:52:44;98319.00;;;26.00
20058;BMP180;10189;49.546;7.906;2023-08-17T11:55:15;98317.00;;;26.10
20058;BMP180;10189;49.546;7.906;2023-08-17T11:57:43;98309.00;;;26.10
20058;BMP180;10189;49.546;7.906;2023-08-17T12:00:09;98290.00;;;26.20
20058;BMP180;10189;49.546;7.906;2023-08-17T12:02:36;98287.00;;;26.00
20058;BMP180;10189;49.546;7.906;2023-08-17T12:05:07;98282.00;;;26.00
20058;BMP180;10189;49.546;7.906;2023-08-17T12:07:35;98269.00;;;25.90
20058;BMP180;10189;49.546;7.906;2023-08-17T12:10:03;98271.00;;;25.90
20058;BMP180;10189;49.546;7.906;2023-08-17T12:12:30;98266.00;;;26.00
20058;BMP180;10189;49.546;7.906;2023-08-17T12:14:57;98262.00;;;26.00
20058;BMP180;10189;49.546;7.906;2023-08-17T12:17:24;98249.00;;;25.90
20058;BMP180;10189;49.546;7.906;2023-08-17T12:19:54;98239.00;;;25.50
20058;BMP180;10189;49.546;7.906;2023-08-17T12:22:25;98252.00;;;25.40
20058;BMP180;10189;49.546;7.906;2023-08-17T12:24:52;98257.00;;;25.10
20058;BMP180;10189;49.546;7.906;2023-08-17T12:27:18;98259.00;;;25.20
20058;BMP180;10189;49.546;7.906;2023-08-17T12:29:51;98261.00;;;25.20
20058;BMP180;10189;49.546;7.906;2023-08-17T12:32:19;98260.00;;;25.30
20058;BMP180;10189;49.546;7.906;2023-08-17T12:34:46;98251.00;;;25.40
20058;BMP180;10189;49.546;7.906;2023-08-17T12:37:18;98247.00;;;25.40
20058;BMP180;10189;49.546;7.906;2023-08-17T12:39:44;98239.00;;;25.40
20058;BMP180;10189;49.546;7.906;2023-08-17T12:42:10;98244.00;;;25.50
20058;BMP180;10189;49.546;7.906;2023-08-17T12:44:36;98233.00;;;25.80
20058;BMP180;10189;49.546;7.906;2023-08-17T12:47:02;98233.00;;;26.70
20058;BMP180;10189;49.546;7.906;2023-08-17T12:49:28;98237.00;;;27.20
20058;BMP180;10189;49.546;7.906;2023-08-17T12:51:54;98222.00;;;27.30
20058;BMP180;10189;49.546;7.906;2023-08-17T12:54:19;98228.00;;;27.60
20058;BMP180;10189;49.546;7.906;2023-08-17T12:56:45;98217.00;;;28.10
20058;BMP180;10189;49.546;7.906;2023-08-17T12:59:11;98222.00;;;28.30
20058;BMP180;10189;49.546;7.906;2023-08-17T13:01:38;98210.00;;;28.50
20058;BMP180;10189;49.546;7.906;2023-08-17T13:04:05;98217.00;;;28.50
20058;BMP180;10189;49.546;7.906;2023-08-17T13:06:31;98224.00;;;28.30
20058;BMP180;10189;49.546;7.906;2023-08-17T13:08:57;98233.00;;;28.40
20058;BMP180;10189;49.546;7.906;2023-08-17T13:11:24;98231.00;;;28.50
20058;BMP180;10189;49.546;7.906;2023-08-17T13:13:49;98220.00;;;28.20
20058;BMP180;10189;49.546;7.906;2023-08-17T13:16:15;98212.00;;;28.40
20058;BMP180;10189;49.546;7.906;2023-08-17T13:18:41;98212.00;;;28.40
20058;BMP180;10189;49.546;7.906;2023-08-17T13:21:07;98208.00;;;28.40
20058;BMP180;10189;49.546;7.906;2023-08-17T13:23:33;98203.00;;;28.80
20058;BMP180;10189;49.546;7.906;2023-08-17T13:25:59;98203.00;;;28.80
20058;BMP180;10189;49.546;7.906;2023-08-17T13:28:26;98195.00;;;28.80
20058;BMP180;10189;49.546;7.906;2023-08-17T13:30:52;98201.00;;;28.40
20058;BMP180;10189;49.546;7.906;2023-08-17T13:33:18;98196.00;;;28.20
20058;BMP180;10189;49.546;7.906;2023-08-17T13:35:43;98174.00;;;27.50
20058;BMP180;10189;49.546;7.906;2023-08-17T13:38:09;98157.00;;;27.40
20058;BMP180;10189;49.546;7.906;2023-08-17T13:40:36;98150.00;;;27.00
20058;BMP180;10189;49.546;7.906;2023-08-17T13:43:04;98165.00;;;26.90
20058;BMP180;10189;49.546;7.906;2023-08-17T13:45:40;98147.00;;;27.00
20058;BMP180;10189;49.546;7.906;2023-08-17T13:48:07;98149.00;;;27.50
20058;BMP180;10189;49.546;7.906;2023-08-17T13:50:37;98148.00;;;27.80
20058;BMP180;10189;49.546;7.906;2023-08-17T13:53:03;98153.00;;;28.00
20058;BMP180;10189;49.546;7.906;2023-08-17T13:55:30;98150.00;;;28.00
20058;BMP180;10189;49.546;7.906;2023-08-17T13:57:56;98156.00;;;28.20
20058;BMP180;10189;49.546;7.906;2023-08-17T14:00:22;98157.00;;;28.20
20058;BMP180;10189;49.546;7.906;2023-08-17T14:02:48;98153.00;;;28.30
20058;BMP180;10189;49.546;7.906;2023-08-17T14:05:14;98159.00;;;28.20
20058;BMP180;10189;49.546;7.906;2023-08-17T14:07:40;98160.00;;;28.20
20058;BMP180;10189;49.546;7.906;2023-08-17T14:10:07;98167.00;;;28.20
20058;BMP180;10189;49.546;7.906;2023-08-17T14:12:32;98166.00;;;28.40
20058;BMP180;10189;49.546;7.906;2023-08-17T14:14:59;98156.00;;;28.20
20058;BMP180;10189;49.546;7.906;2023-08-17T14:17:25;98156.00;;;28.10
20058;BMP180;10189;49.546;7.906;2023-08-17T14:19:51;98153.00;;;27.80